sensor_id;sensor_type;location;lat;lon;timestamp;pressure;altitude;pressure_sealevel;temperature;humidity
17209;BME280;8720;48.488;9.202;2023-03-23T00:02:26;96478.25;;;18.23;34.93
17209;BME280;8720;48.488;9.202;2023-03-23T00:04:54;96472.88;;;18.25;35.13
17209;BME280;8720;48.488;9.202;2023-03-23T00:07:23;96467.13;;;18.18;35.01
17209;BME280;8720;48.488;9.202;2023-03-23T00:09:54;96478.00;;;18.28;34.76
17209;BME280;8720;48.488;9.202;2023-03-23T00:12:25;96471.72;;;18.29;35.02
17209;BME280;8720;48.488;9.202;2023-03-23T00:14:55;96474.47;;;18.27;35.11
17209;BME280;8720;48.488;9.202;2023-03-23T00:17:22;96475.78;;;18.34;35.19
17209;BME280;8720;48.488;9.202;2023-03-23T00:19:50;96477.41;;;18.37;35.20
17209;BME280;8720;48.488;9.202;2023-03-23T00:22:18;96464.53;;;18.31;34.92
17209;BME280;8720;48.488;9.202;2023-03-23T00:24:48;96470.22;;;18.39;35.06
17209;BME280;8720;48.488;9.202;2023-03-23T00:27:17;96461.28;;;18.40;35.00
17209;BME280;8720;48.488;9.202;2023-03-23T00:29:48;96456.00;;;18.40;34.99
17209;BME280;8720;48.488;9.202;2023-03-23T00:32:20;96454.22;;;18.40;34.94
17209;BME280;8720;48.488;9.202;2023-03-23T00:34:53;96465.59;;;18.42;34.81
17209;BME280;8720;48.488;9.202;2023-03-23T00:37:22;96454.81;;;18.45;35.28
17209;BME280;8720;48.488;9.202;2023-03-23T00:39:51;96444.97;;;18.47;35.10
17209;BME280;8720;48.488;9.202;2023-03-23T00:42:23;96437.84;;;18.48;34.94
17209;BME280;8720;48.488;9.202;2023-03-23T00:44:50;96438.72;;;18.48;34.80
17209;BME280;8720;48.488;9.202;2023-03-23T00:47:19;96435.03;;;18.51;34.92
17209;BME280;8720;48.488;9.202;2023-03-23T00:49:47;96433.97;;;18.53;34.65
17209;BME280;8720;48.488;9.202;2023-03-23T00:52:15;96439.06;;;18.56;34.88
17209;BME280;8720;48.488;9.202;2023-03-23T00:54:43;96425.63;;;18.59;34.76
17209;BME280;8720;48.488;9.202;2023-03-23T00:57:11;96420.97;;;18.63;34.85
17209;BME280;8720;48.488;9.202;2023-03-23T00:59:41;96420.78;;;18.66;34.79
17209;BME280;8720;48.488;9.202;2023-03-23T01:02:08;96419.81;;;18.67;34.96
17209;BME280;8720;48.488;9.202;2023-03-23T01:04:38;96423.16;;;18.70;34.64
17209;BME280;8720;48.488;9.202;2023-03-23T01:07:05;96422.19;;;18.71;34.83
17209;BME280;8720;48.488;9.202;2023-03-23T01:09:34;96369.94;;;18.47;35.14
17209;BME280;8720;48.488;9.202;2023-03-23T01:12:02;96418.47;;;18.74;35.35
17209;BME280;8720;48.488;9.202;2023-03-23T01:14:33;96413.19;;;18.74;35.18
17209;BME280;8720;48.488;9.202;2023-03-23T01:17:00;96411.47;;;18.73;35.46
17209;BME280;8720;48.488;9.202;2023-03-23T01:19:28;96409.88;;;18.70;35.26
17209;BME280;8720;48.488;9.202;2023-03-23T01:21:56;96415.38;;;18.67;35.55
17209;BME280;8720;48.488;9.202;2023-03-23T01:24:23;96405.00;;;18.64;35.36
17209;BME280;8720;48.488;9.202;2023-03-23T01:26:50;96397.97;;;18.63;35.47
17209;BME280;8720;48.488;9.202;2023-03-23T01:29:17;96392.88;;;18.60;35.57
17209;BME280;8720;48.488;9.202;2023-03-23T01:31:46;96381.09;;;18.52;35.19
17209;BME280;8720;48.488;9.202;2023-03-23T01:34:13;96403.59;;;18.59;35.64
17209;BME280;8720;48.488;9.202;2023-03-23T01:36:40;96402.75;;;18.58;35.84
17209;BME280;8720;48.488;9.202;2023-03-23T01:39:08;96401.13;;;18.56;35.85
17209;BME280;8720;48.488;9.202;2023-03-23T01:41:36;96405.78;;;18.52;36.07
17209;BME280;8720;48.488;9.202;2023-03-23T01:47:32;96403.53;;;18.46;36.24
17209;BME280;8720;48.488;9.202;2023-03-23T01:49:59;96397.38;;;18.46;36.11
17209;BME280;8720;48.488;9.202;2023-03-23T01:52:28;96398.22;;;18.46;36.10
17209;BME280;8720;48.488;9.202;2023-03-23T01:55:01;96394.81;;;18.44;36.40
17209;BME280;8720;48.488;9.202;2023-03-23T01:57:30;96392.28;;;18.43;36.33
17209;BME280;8720;48.488;9.202;2023-03-23T02:00:05;96388.97;;;18.39;36.31
17209;BME280;8720;48.488;9.202;2023-03-23T02:02:43;96379.50;;;18.35;36.51
17209;BME280;8720;48.488;9.202;2023-03-23T02:05:19;96375.34;;;18.31;36.57
17209;BME280;8720;48.488;9.202;2023-03-23T02:07:48;96369.41;;;18.28;36.34
17209;BME280;8720;48.488;9.202;2023-03-23T02:10:17;96366.94;;;18.25;36.35
17209;BME280;8720;48.488;9.202;2023-03-23T02:12:44;96367.06;;;18.23;36.52
17209;BME280;8720;48.488;9.202;2023-03-23T02:15:13;96366.19;;;18.23;36.36
17209;BME280;8720;48.488;9.202;2023-03-23T02:17:55;96358.25;;;18.23;36.31
17209;BME280;8720;48.488;9.202;2023-03-23T02:20:47;96358.25;;;18.23;36.36
17209;BME280;8720;48.488;9.202;2023-03-23T02:23:50;96366.19;;;18.23;36.55
17209;BME280;8720;48.488;9.202;2023-03-23T02:26:34;96363.25;;;18.27;36.48
17209;BME280;8720;48.488;9.202;2023-03-23T02:29:25;96362.75;;;18.35;36.28
17209;BME280;8720;48.488;9.202;2023-03-23T02:32:12;96357.75;;;18.44;36.35
17209;BME280;8720;48.488;9.202;2023-03-23T02:34:49;96359.69;;;18.55;36.19
17209;BME280;8720;48.488;9.202;2023-03-23T02:37:25;96349.75;;;18.58;36.29
17209;BME280;8720;48.488;9.202;2023-03-23T02:40:02;96358.47;;;18.73;36.04
17209;BME280;8720;48.488;9.202;2023-03-23T02:42:38;96357.75;;;18.83;36.08
17209;BME280;8720;48.488;9.202;2023-03-23T02:45:11;96347.38;;;18.93;36.17
17209;BME280;8720;48.488;9.202;2023-03-23T02:47:41;96341.56;;;19.00;36.01
17209;BME280;8720;48.488;9.202;2023-03-23T02:50:14;96342.72;;;19.09;35.81
17209;BME280;8720;48.488;9.202;2023-03-23T02:52:45;96345.72;;;19.17;35.94
17209;BME280;8720;48.488;9.202;2023-03-23T02:55:14;96323.13;;;19.24;35.90
17209;BME280;8720;48.488;9.202;2023-03-23T02:57:42;96319.94;;;19.32;35.73
17209;BME280;8720;48.488;9.202;2023-03-23T03:05:45;96314.97;;;19.52;35.48
17209;BME280;8720;48.488;9.202;2023-03-23T03:08:24;96315.41;;;19.59;35.37
17209;BME280;8720;48.488;9.202;2023-03-23T03:10:59;96307.84;;;19.65;35.47
17209;BME280;8720;48.488;9.202;2023-03-23T03:13:39;96319.72;;;19.72;35.43
17209;BME280;8720;48.488;9.202;2023-03-23T03:16:22;96315.91;;;19.76;35.48
17209;BME280;8720;48.488;9.202;2023-03-23T03:18:56;96323.50;;;19.81;35.35
17209;BME280;8720;48.488;9.202;2023-03-23T03:21:30;96325.00;;;19.85;35.11
17209;BME280;8720;48.488;9.202;2023-03-23T03:24:03;96319.47;;;19.88;35.36
17209;BME280;8720;48.488;9.202;2023-03-23T03:26:35;96314.88;;;19.90;34.98
17209;BME280;8720;48.488;9.202;2023-03-23T03:29:23;96308.63;;;19.91;35.26
17209;BME280;8720;48.488;9.202;2023-03-23T03:31:55;96289.06;;;19.92;34.84
17209;BME280;8720;48.488;9.202;2023-03-23T03:34:26;96289.94;;;19.92;34.92
17209;BME280;8720;48.488;9.202;2023-03-23T03:36:57;96298.75;;;19.93;34.71
17209;BME280;8720;48.488;9.202;2023-03-23T03:39:27;96291.84;;;19.90;34.77
17209;BME280;8720;48.488;9.202;2023-03-23T03:41:55;96289.94;;;19.92;34.77
17209;BME280;8720;48.488;9.202;2023-03-23T03:44:22;96285.59;;;19.91;35.13
17209;BME280;8720;48.488;9.202;2023-03-23T03:46:50;96289.94;;;19.92;34.78
17209;BME280;8720;48.488;9.202;2023-03-23T03:49:17;96293.31;;;19.94;34.67
17209;BME280;8720;48.488;9.202;2023-03-23T03:51:44;96288.88;;;19.95;34.57
17209;BME280;8720;48.488;9.202;2023-03-23T03:54:20;96299.38;;;19.97;34.74
17209;BME280;8720;48.488;9.202;2023-03-23T03:56:47;96292.25;;;19.97;34.71
17209;BME280;8720;48.488;9.202;2023-03-23T03:59:43;96297.56;;;19.97;34.43
17209;BME280;8720;48.488;9.202;2023-03-23T04:02:42;96295.03;;;19.96;34.41
17209;BME280;8720;48.488;9.202;2023-03-23T04:05:10;96277.38;;;19.94;34.53
17209;BME280;8720;48.488;9.202;2023-03-23T04:07:39;96294.28;;;19.93;34.52
17209;BME280;8720;48.488;9.202;2023-03-23T04:10:11;96293.56;;;19.91;34.36
17209;BME280;8720;48.488;9.202;2023-03-23T04:12:41;96291.84;;;19.90;34.71
17209;BME280;8720;48.488;9.202;2023-03-23T04:15:37;96289.63;;;19.84;34.63
17209;BME280;8720;48.488;9.202;2023-03-23T04:18:05;96289.88;;;19.81;34.61
17209;BME280;8720;48.488;9.202;2023-03-23T04:20:32;96284.75;;;19.78;34.53
17209;BME280;8720;48.488;9.202;2023-03-23T04:23:01;96285.97;;;19.74;34.71
17209;BME280;8720;48.488;9.202;2023-03-23T04:25:31;96286.16;;;19.71;34.43
17209;BME280;8720;48.488;9.202;2023-03-23T04:28:00;96288.31;;;19.66;34.57
17209;BME280;8720;48.488;9.202;2023-03-23T04:30:33;96284.28;;;19.61;34.67
17209;BME280;8720;48.488;9.202;2023-03-23T04:33:06;96279.31;;;19.56;34.65
17209;BME280;8720;48.488;9.202;2023-03-23T04:35:35;96284.09;;;19.51;34.88
17209;BME280;8720;48.488;9.202;2023-03-23T04:38:24;96282.81;;;19.44;34.85
17209;BME280;8720;48.488;9.202;2023-03-23T04:40:59;96275.28;;;19.38;34.75
17209;BME280;8720;48.488;9.202;2023-03-23T04:43:42;96287.06;;;19.34;34.77
17209;BME280;8720;48.488;9.202;2023-03-23T04:46:22;96285.38;;;19.33;34.82
17209;BME280;8720;48.488;9.202;2023-03-23T04:48:51;96291.56;;;19.34;34.88
17209;BME280;8720;48.488;9.202;2023-03-23T04:51:24;96296.00;;;19.33;35.09
17209;BME280;8720;48.488;9.202;2023-03-23T04:53:54;96290.69;;;19.33;35.09
17209;BME280;8720;48.488;9.202;2023-03-23T04:56:24;96302.16;;;19.34;34.85
17209;BME280;8720;48.488;9.202;2023-03-23T04:58:53;96289.72;;;19.34;34.85
17209;BME280;8720;48.488;9.202;2023-03-23T05:01:33;96283.88;;;19.29;35.11
17209;BME280;8720;48.488;9.202;2023-03-23T05:04:22;96287.72;;;19.38;35.00
17209;BME280;8720;48.488;9.202;2023-03-23T05:07:08;96280.81;;;19.35;34.95
17209;BME280;8720;48.488;9.202;2023-03-23T05:09:47;96293.84;;;19.38;34.79
17209;BME280;8720;48.488;9.202;2023-03-23T05:12:17;96285.91;;;19.38;34.75
17209;BME280;8720;48.488;9.202;2023-03-23T05:15:07;96284.84;;;19.41;35.04
17209;BME280;8720;48.488;9.202;2023-03-23T05:17:36;96282.94;;;19.43;34.93
17209;BME280;8720;48.488;9.202;2023-03-23T05:20:14;96289.91;;;19.44;35.06
17209;BME280;8720;48.488;9.202;2023-03-23T05:22:47;96290.47;;;19.49;34.95
17209;BME280;8720;48.488;9.202;2023-03-23T05:25:19;96289.41;;;19.51;35.00
17209;BME280;8720;48.488;9.202;2023-03-23T05:27:54;96287.50;;;19.53;34.72
17209;BME280;8720;48.488;9.202;2023-03-23T05:30:48;96283.88;;;19.54;34.75
17209;BME280;8720;48.488;9.202;2023-03-23T05:33:16;96278.25;;;19.59;34.84
17209;BME280;8720;48.488;9.202;2023-03-23T05:35:48;96274.50;;;19.61;34.88
17209;BME280;8720;48.488;9.202;2023-03-23T05:38:21;96270.91;;;19.62;34.65
17209;BME280;8720;48.488;9.202;2023-03-23T05:40:49;96269.00;;;19.64;34.38
17209;BME280;8720;48.488;9.202;2023-03-23T05:43:25;96274.34;;;19.88;34.05
17209;BME280;8720;48.488;9.202;2023-03-23T05:46:11;96276.47;;;19.83;34.20
17209;BME280;8720;48.488;9.202;2023-03-23T05:48:40;96277.44;;;19.82;34.42
17209;BME280;8720;48.488;9.202;2023-03-23T05:51:12;96277.44;;;19.82;34.44
17209;BME280;8720;48.488;9.202;2023-03-23T05:53:42;96283.56;;;19.82;34.43
17209;BME280;8720;48.488;9.202;2023-03-23T05:56:13;96286.16;;;19.84;34.63
17209;BME280;8720;48.488;9.202;2023-03-23T05:59:06;96297.59;;;19.84;34.45
17209;BME280;8720;48.488;9.202;2023-03-23T06:01:35;96298.34;;;19.86;34.38
17209;BME280;8720;48.488;9.202;2023-03-23T06:04:03;96292.94;;;19.88;34.47
17209;BME280;8720;48.488;9.202;2023-03-23T06:06:46;96297.16;;;19.90;34.26
17209;BME280;8720;48.488;9.202;2023-03-23T06:09:14;96298.00;;;19.91;34.29
17209;BME280;8720;48.488;9.202;2023-03-23T06:12:18;96307.78;;;19.90;34.53
17209;BME280;8720;48.488;9.202;2023-03-23T06:15:09;96318.19;;;19.93;34.56
17209;BME280;8720;48.488;9.202;2023-03-23T06:18:04;96322.41;;;19.96;34.57
17209;BME280;8720;48.488;9.202;2023-03-23T06:20:47;96318.69;;;19.99;34.48
17209;BME280;8720;48.488;9.202;2023-03-23T06:23:45;96326.44;;;20.02;34.61
17209;BME280;8720;48.488;9.202;2023-03-23T06:26:18;96328.75;;;20.06;34.73
17209;BME280;8720;48.488;9.202;2023-03-23T06:28:51;96329.38;;;20.10;34.65
17209;BME280;8720;48.488;9.202;2023-03-23T06:31:20;96325.44;;;20.15;34.72
17209;BME280;8720;48.488;9.202;2023-03-23T06:33:49;96332.16;;;20.21;34.65
17209;BME280;8720;48.488;9.202;2023-03-23T06:36:26;96335.44;;;20.24;34.46
17209;BME280;8720;48.488;9.202;2023-03-23T06:39:07;96336.06;;;20.28;34.95
17209;BME280;8720;48.488;9.202;2023-03-23T06:41:58;96339.22;;;20.33;34.68
17209;BME280;8720;48.488;9.202;2023-03-23T06:44:29;96349.41;;;20.39;34.43
17209;BME280;8720;48.488;9.202;2023-03-23T06:46:58;96349.91;;;20.44;34.50
17209;BME280;8720;48.488;9.202;2023-03-23T06:49:29;96360.06;;;20.50;34.54
17209;BME280;8720;48.488;9.202;2023-03-23T06:52:13;96352.63;;;20.55;34.72
17209;BME280;8720;48.488;9.202;2023-03-23T06:54:40;96355.66;;;20.61;34.60
17209;BME280;8720;48.488;9.202;2023-03-23T06:57:09;96346.88;;;20.61;34.41
17209;BME280;8720;48.488;9.202;2023-03-23T06:59:36;96355.50;;;20.75;34.47
17209;BME280;8720;48.488;9.202;2023-03-23T07:02:07;96354.91;;;20.83;34.61
17209;BME280;8720;48.488;9.202;2023-03-23T07:04:35;96356.91;;;20.92;34.16
17209;BME280;8720;48.488;9.202;2023-03-23T07:07:10;96359.81;;;21.00;34.27
17209;BME280;8720;48.488;9.202;2023-03-23T07:09:48;96361.91;;;21.08;34.26
17209;BME280;8720;48.488;9.202;2023-03-23T07:12:19;96365.94;;;21.13;34.22
17209;BME280;8720;48.488;9.202;2023-03-23T07:14:48;96364.63;;;21.19;34.06
17209;BME280;8720;48.488;9.202;2023-03-23T07:17:17;96365.84;;;21.26;33.54
17209;BME280;8720;48.488;9.202;2023-03-23T07:20:00;96363.66;;;21.31;33.53
17209;BME280;8720;48.488;9.202;2023-03-23T07:22:29;96369.38;;;21.37;33.33
17209;BME280;8720;48.488;9.202;2023-03-23T07:25:06;96377.75;;;21.44;33.28
17209;BME280;8720;48.488;9.202;2023-03-23T07:27:54;96394.22;;;21.49;33.47
17209;BME280;8720;48.488;9.202;2023-03-23T07:30:21;96385.03;;;21.53;33.20
17209;BME280;8720;48.488;9.202;2023-03-23T07:32:50;96399.91;;;21.55;33.32
17209;BME280;8720;48.488;9.202;2023-03-23T07:35:19;96397.84;;;21.59;33.16
17209;BME280;8720;48.488;9.202;2023-03-23T07:37:54;96399.31;;;21.63;33.07
17209;BME280;8720;48.488;9.202;2023-03-23T07:40:22;96387.69;;;21.64;33.04
17209;BME280;8720;48.488;9.202;2023-03-23T07:42:54;96393.00;;;21.64;33.22
17209;BME280;8720;48.488;9.202;2023-03-23T07:45:32;96409.38;;;21.59;33.40
17209;BME280;8720;48.488;9.202;2023-03-23T07:48:01;96414.69;;;21.59;33.17
17209;BME280;8720;48.488;9.202;2023-03-23T07:50:29;96417.56;;;21.56;33.17
17209;BME280;8720;48.488;9.202;2023-03-23T07:52:59;96410.44;;;21.57;33.13
17209;BME280;8720;48.488;9.202;2023-03-23T07:55:30;96411.38;;;21.56;33.25
17209;BME280;8720;48.488;9.202;2023-03-23T07:58:08;96412.25;;;21.56;33.30
17209;BME280;8720;48.488;9.202;2023-03-23T08:00:36;96412.03;;;21.59;33.46
17209;BME280;8720;48.488;9.202;2023-03-23T08:03:08;96405.50;;;21.63;33.54
17209;BME280;8720;48.488;9.202;2023-03-23T08:06:08;96417.50;;;21.69;33.68
17209;BME280;8720;48.488;9.202;2023-03-23T08:08:52;96420.38;;;21.77;33.63
17209;BME280;8720;48.488;9.202;2023-03-23T08:11:38;96423.22;;;21.87;33.50
17209;BME280;8720;48.488;9.202;2023-03-23T08:14:25;96428.78;;;21.95;33.37
17209;BME280;8720;48.488;9.202;2023-03-23T08:17:05;96428.91;;;22.04;33.09
17209;BME280;8720;48.488;9.202;2023-03-23T08:19:42;96425.53;;;22.13;33.14
17209;BME280;8720;48.488;9.202;2023-03-23T08:22:30;96424.06;;;22.20;33.35
17209;BME280;8720;48.488;9.202;2023-03-23T08:25:30;96430.72;;;22.26;33.53
17209;BME280;8720;48.488;9.202;2023-03-23T08:28:20;96433.16;;;22.29;33.44
17209;BME280;8720;48.488;9.202;2023-03-23T08:31:25;96434.63;;;22.33;33.17
17209;BME280;8720;48.488;9.202;2023-03-23T08:34:05;96435.94;;;22.38;33.32
17209;BME280;8720;48.488;9.202;2023-03-23T08:36:46;96443.31;;;22.46;33.15
17209;BME280;8720;48.488;9.202;2023-03-23T08:39:33;96456.03;;;22.53;33.27
17209;BME280;8720;48.488;9.202;2023-03-23T08:42:10;96458.13;;;22.61;33.56
17209;BME280;8720;48.488;9.202;2023-03-23T08:44:44;96460.28;;;22.67;33.45
17209;BME280;8720;48.488;9.202;2023-03-23T08:47:26;96456.53;;;22.70;33.43
17209;BME280;8720;48.488;9.202;2023-03-23T08:50:22;96464.41;;;22.71;33.24
17209;BME280;8720;48.488;9.202;2023-03-23T08:53:10;96457.50;;;22.69;33.41
17209;BME280;8720;48.488;9.202;2023-03-23T08:55:46;96462.97;;;22.67;33.20
17209;BME280;8720;48.488;9.202;2023-03-23T08:58:22;96462.25;;;22.65;33.67
17209;BME280;8720;48.488;9.202;2023-03-23T09:00:50;96469.50;;;22.63;33.55
17209;BME280;8720;48.488;9.202;2023-03-23T09:03:37;96482.13;;;22.61;33.79
17209;BME280;8720;48.488;9.202;2023-03-23T09:06:28;96473.41;;;22.59;33.92
17209;BME280;8720;48.488;9.202;2023-03-23T09:08:57;96482.38;;;22.58;33.53
17209;BME280;8720;48.488;9.202;2023-03-23T09:11:25;96473.63;;;22.56;33.70
17209;BME280;8720;48.488;9.202;2023-03-23T09:13:52;96481.97;;;22.51;33.65
17209;BME280;8720;48.488;9.202;2023-03-23T09:16:19;96476.03;;;22.48;34.08
17209;BME280;8720;48.488;9.202;2023-03-23T09:18:46;96484.19;;;22.46;34.11
17209;BME280;8720;48.488;9.202;2023-03-23T09:21:16;96490.09;;;22.50;34.20
17209;BME280;8720;48.488;9.202;2023-03-23T09:23:43;96485.50;;;22.52;34.25
17209;BME280;8720;48.488;9.202;2023-03-23T09:26:12;96494.94;;;22.56;34.56
17209;BME280;8720;48.488;9.202;2023-03-23T09:28:40;96503.44;;;22.61;34.75
17209;BME280;8720;48.488;9.202;2023-03-23T09:31:10;96493.97;;;22.68;34.38
17209;BME280;8720;48.488;9.202;2023-03-23T09:33:38;96495.31;;;22.74;34.57
17209;BME280;8720;48.488;9.202;2023-03-23T09:36:06;96494.59;;;22.83;34.45
17209;BME280;8720;48.488;9.202;2023-03-23T09:38:37;96496.38;;;22.93;34.62
17209;BME280;8720;48.488;9.202;2023-03-23T09:41:26;96505.59;;;23.00;34.41
17209;BME280;8720;48.488;9.202;2023-03-23T09:44:08;96506.91;;;23.06;34.37
17209;BME280;8720;48.488;9.202;2023-03-23T09:46:53;96495.63;;;23.02;34.42
17209;BME280;8720;48.488;9.202;2023-03-23T09:49:29;96507.72;;;23.06;33.96
17209;BME280;8720;48.488;9.202;2023-03-23T09:52:09;96505.31;;;23.03;34.22
17209;BME280;8720;48.488;9.202;2023-03-23T09:54:41;96508.63;;;22.96;34.28
17209;BME280;8720;48.488;9.202;2023-03-23T09:57:19;96512.38;;;22.93;34.25
17209;BME280;8720;48.488;9.202;2023-03-23T09:59:55;96501.88;;;23.23;34.02
17209;BME280;8720;48.488;9.202;2023-03-23T10:02:30;96506.88;;;23.17;33.92
17209;BME280;8720;48.488;9.202;2023-03-23T10:05:30;96501.78;;;23.14;33.90
17209;BME280;8720;48.488;9.202;2023-03-23T10:08:01;96505.78;;;23.19;34.16
17209;BME280;8720;48.488;9.202;2023-03-23T10:10:42;96501.63;;;23.26;34.03
17209;BME280;8720;48.488;9.202;2023-03-23T10:13:25;96505.97;;;23.38;33.99
17209;BME280;8720;48.488;9.202;2023-03-23T10:15:56;96509.59;;;23.49;33.93
17209;BME280;8720;48.488;9.202;2023-03-23T10:18:30;96503.19;;;23.61;33.95
17209;BME280;8720;48.488;9.202;2023-03-23T10:21:00;96508.75;;;23.69;33.69
17209;BME280;8720;48.488;9.202;2023-03-23T10:23:47;96507.38;;;23.74;33.52
17209;BME280;8720;48.488;9.202;2023-03-23T10:26:40;96506.88;;;23.80;33.51
17209;BME280;8720;48.488;9.202;2023-03-23T10:29:18;96513.00;;;23.92;33.14
17209;BME280;8720;48.488;9.202;2023-03-23T10:31:53;96506.84;;;24.01;32.90
17209;BME280;8720;48.488;9.202;2023-03-23T10:34:29;96494.13;;;24.04;32.75
17209;BME280;8720;48.488;9.202;2023-03-23T10:37:05;96509.53;;;24.12;33.38
17209;BME280;8720;48.488;9.202;2023-03-23T10:39:46;96516.53;;;24.13;33.25
17209;BME280;8720;48.488;9.202;2023-03-23T10:42:24;96519.50;;;24.10;33.81
17209;BME280;8720;48.488;9.202;2023-03-23T10:44:55;96509.91;;;24.07;33.78
17209;BME280;8720;48.488;9.202;2023-03-23T10:47:24;96523.41;;;24.06;33.88
17209;BME280;8720;48.488;9.202;2023-03-23T10:49:56;96528.25;;;24.01;34.13
17209;BME280;8720;48.488;9.202;2023-03-23T10:52:31;96530.47;;;23.96;33.55
17209;BME280;8720;48.488;9.202;2023-03-23T10:55:07;96526.22;;;23.93;34.05
17209;BME280;8720;48.488;9.202;2023-03-23T10:57:37;96521.16;;;23.90;34.12
17209;BME280;8720;48.488;9.202;2023-03-23T11:00:17;96524.41;;;23.94;34.17
17209;BME280;8720;48.488;9.202;2023-03-23T11:02:57;96526.56;;;24.00;34.42
17209;BME280;8720;48.488;9.202;2023-03-23T11:05:34;96524.63;;;24.02;34.67
17209;BME280;8720;48.488;9.202;2023-03-23T11:08:02;96525.81;;;24.09;34.11
17209;BME280;8720;48.488;9.202;2023-03-23T11:10:38;96515.69;;;24.12;33.95
17209;BME280;8720;48.488;9.202;2023-03-23T11:13:13;96514.19;;;24.19;34.18
17209;BME280;8720;48.488;9.202;2023-03-23T11:15:44;96521.81;;;24.24;34.14
17209;BME280;8720;48.488;9.202;2023-03-23T11:18:20;96522.66;;;24.24;33.46
17209;BME280;8720;48.488;9.202;2023-03-23T11:20:52;96521.56;;;24.27;33.64
17209;BME280;8720;48.488;9.202;2023-03-23T11:23:26;96531.41;;;24.26;33.05
17209;BME280;8720;48.488;9.202;2023-03-23T11:26:08;96521.81;;;24.24;33.25
17209;BME280;8720;48.488;9.202;2023-03-23T11:28:43;96512.97;;;24.23;32.83
17209;BME280;8720;48.488;9.202;2023-03-23T11:31:13;96508.44;;;24.24;32.75
17209;BME280;8720;48.488;9.202;2023-03-23T11:33:52;96504.09;;;24.23;32.71
17209;BME280;8720;48.488;9.202;2023-03-23T11:36:27;96506.38;;;24.27;32.53
17209;BME280;8720;48.488;9.202;2023-03-23T11:38:55;96498.94;;;24.31;32.71
17209;BME280;8720;48.488;9.202;2023-03-23T11:41:24;96493.88;;;24.38;32.77
17209;BME280;8720;48.488;9.202;2023-03-23T11:43:55;96490.41;;;24.47;32.76
17209;BME280;8720;48.488;9.202;2023-03-23T11:46:34;96488.19;;;24.52;32.49
17209;BME280;8720;48.488;9.202;2023-03-23T11:49:09;96483.41;;;24.55;32.52
17209;BME280;8720;48.488;9.202;2023-03-23T11:51:45;96482.28;;;24.58;32.27
17209;BME280;8720;48.488;9.202;2023-03-23T11:54:26;96491.75;;;24.62;32.53
17209;BME280;8720;48.488;9.202;2023-03-23T11:56:53;96485.72;;;24.69;32.57
17209;BME280;8720;48.488;9.202;2023-03-23T11:59:29;96471.13;;;24.73;32.37
17209;BME280;8720;48.488;9.202;2023-03-23T12:02:26;96477.06;;;24.86;31.83
17209;BME280;8720;48.488;9.202;2023-03-23T12:05:29;96468.63;;;24.91;32.12
17209;BME280;8720;48.488;9.202;2023-03-23T12:08:15;96476.69;;;25.00;32.11
17209;BME280;8720;48.488;9.202;2023-03-23T12:10:53;96472.44;;;25.07;31.93
17209;BME280;8720;48.488;9.202;2023-03-23T12:13:40;96476.97;;;25.16;31.75
17209;BME280;8720;48.488;9.202;2023-03-23T12:16:30;96459.38;;;25.23;31.82
17209;BME280;8720;48.488;9.202;2023-03-23T12:19:10;96460.09;;;25.26;31.44
17209;BME280;8720;48.488;9.202;2023-03-23T12:21:52;96465.59;;;25.34;31.52
17209;BME280;8720;48.488;9.202;2023-03-23T12:24:41;96456.56;;;25.35;31.44
17209;BME280;8720;48.488;9.202;2023-03-23T12:27:20;96465.72;;;25.32;30.92
17209;BME280;8720;48.488;9.202;2023-03-23T12:30:08;96465.59;;;25.34;31.03
17209;BME280;8720;48.488;9.202;2023-03-23T12:32:55;96464.88;;;25.32;30.96
17209;BME280;8720;48.488;9.202;2023-03-23T12:35:42;96459.09;;;25.27;30.66
17209;BME280;8720;48.488;9.202;2023-03-23T12:38:44;96467.56;;;25.22;30.83
17209;BME280;8720;48.488;9.202;2023-03-23T12:41:23;96461.03;;;25.15;30.86
17209;BME280;8720;48.488;9.202;2023-03-23T12:43:58;96464.97;;;25.11;30.74
17209;BME280;8720;48.488;9.202;2023-03-23T12:47:05;96459.91;;;24.98;31.15
17209;BME280;8720;48.488;9.202;2023-03-23T12:49:41;96452.56;;;24.91;31.14
17209;BME280;8720;48.488;9.202;2023-03-23T12:52:19;96458.31;;;24.86;31.19
17209;BME280;8720;48.488;9.202;2023-03-23T12:54:53;96452.41;;;24.83;31.33
17209;BME280;8720;48.488;9.202;2023-03-23T12:57:29;96450.97;;;24.79;30.94
17209;BME280;8720;48.488;9.202;2023-03-23T13:00:07;96455.19;;;24.72;31.30
17209;BME280;8720;48.488;9.202;2023-03-23T13:02:46;96452.91;;;24.67;30.90
17209;BME280;8720;48.488;9.202;2023-03-23T13:05:33;96445.41;;;24.61;30.92
17209;BME280;8720;48.488;9.202;2023-03-23T13:08:13;96423.84;;;24.53;30.92
17209;BME280;8720;48.488;9.202;2023-03-23T13:10:46;96445.41;;;24.61;30.90
17209;BME280;8720;48.488;9.202;2023-03-23T13:13:19;96442.16;;;24.58;31.15
17209;BME280;8720;48.488;9.202;2023-03-23T13:16:01;96430.91;;;24.54;30.67
17209;BME280;8720;48.488;9.202;2023-03-23T13:18:44;96437.91;;;24.55;31.35
17209;BME280;8720;48.488;9.202;2023-03-23T13:21:21;96422.88;;;24.54;30.92
17209;BME280;8720;48.488;9.202;2023-03-23T13:23:58;96426.69;;;24.61;30.97
17209;BME280;8720;48.488;9.202;2023-03-23T13:26:27;96423.16;;;24.61;30.82
17209;BME280;8720;48.488;9.202;2023-03-23T13:28:59;96425.97;;;24.59;30.98
17209;BME280;8720;48.488;9.202;2023-03-23T13:31:30;96422.59;;;24.57;31.05
17209;BME280;8720;48.488;9.202;2023-03-23T13:34:05;96418.09;;;24.58;30.87
17209;BME280;8720;48.488;9.202;2023-03-23T13:36:38;96410.63;;;24.61;30.76
17209;BME280;8720;48.488;9.202;2023-03-23T13:39:19;96416.69;;;24.63;30.74
17209;BME280;8720;48.488;9.202;2023-03-23T13:41:49;96406.69;;;24.65;30.53
17209;BME280;8720;48.488;9.202;2023-03-23T13:44:38;96411.91;;;24.67;30.90
17209;BME280;8720;48.488;9.202;2023-03-23T13:47:26;96415.59;;;24.66;30.91
17209;BME280;8720;48.488;9.202;2023-03-23T13:49:56;96409.66;;;24.62;31.07
17209;BME280;8720;48.488;9.202;2023-03-23T13:52:36;96403.47;;;24.62;31.17
17209;BME280;8720;48.488;9.202;2023-03-23T13:55:41;96404.72;;;24.58;30.81
17209;BME280;8720;48.488;9.202;2023-03-23T13:58:23;96389.22;;;24.52;31.06
17209;BME280;8720;48.488;9.202;2023-03-23T14:01:11;96400.38;;;24.57;31.11
17209;BME280;8720;48.488;9.202;2023-03-23T14:03:45;96404.56;;;24.59;30.72
17209;BME280;8720;48.488;9.202;2023-03-23T14:06:20;96400.38;;;24.57;31.23